Time;durP1;ratioP1;P1;durP2;ratioP2;P2;SDS_P1;SDS_P2;PMS_P1;PMS_P2;Temp;Humidity;BMP_temperature;BMP_pressure;BME280_temperature;BME280_humidity;BME280_pressure;Samples;Min_cycle;Max_cycle;Signal;HPM_P1;HPM_P2
2023/01/24 00:02:09;;;;;;;24.85;17.17;;;4.80;55.20;;;;;;5070677;28;20398;-74
2023/01/24 00:04:34;;;;;;;23.05;16.42;;;4.80;54.10;;;;;;5070862;28;20376;-75
2023/01/24 00:07:00;;;;;;;21.98;14.98;;;4.80;54.00;;;;;;5069319;28;20431;-75
2023/01/24 00:09:25;;;;;;;21.25;14.57;;;4.90;50.20;;;;;;5070318;28;20383;-74
2023/01/24 00:11:51;;;;;;;23.83;14.90;;;4.90;50.40;;;;;;5070046;28;20395;-74
2023/01/24 00:14:16;;;;;;;23.60;15.93;;;4.80;52.20;;;;;;5070191;28;20546;-75
2023/01/24 00:16:42;;;;;;;21.73;14.90;;;4.90;52.10;;;;;;5071177;28;20399;-74
2023/01/24 00:19:07;;;;;;;24.80;15.83;;;4.80;50.20;;;;;;5074521;28;20494;-75
2023/01/24 00:21:33;;;;;;;23.37;15.13;;;4.80;52.50;;;;;;5074147;28;20383;-75
2023/01/24 00:23:58;;;;;;;21.67;15.07;;;4.70;53.80;;;;;;5074200;28;20383;-75
2023/01/24 00:26:25;;;;;;;20.80;14.27;;;4.80;51.00;;;;;;5074072;28;20411;-74
2023/01/24 00:28:51;;;;;;;23.75;15.50;;;4.80;50.70;;;;;;5073984;28;20380;-75
2023/01/24 00:31:17;;;;;;;25.67;16.80;;;4.80;52.80;;;;;;5073949;28;20449;-74
2023/01/24 00:33:43;;;;;;;23.58;14.85;;;4.80;54.40;;;;;;5073899;28;20457;-74
2023/01/24 00:36:09;;;;;;;21.48;14.68;;;4.70;54.40;;;;;;5073860;28;20404;-75
2023/01/24 00:38:35;;;;;;;22.17;15.35;;;4.80;51.80;;;;;;5073597;28;20375;-74
2023/01/24 00:41:01;;;;;;;18.40;12.70;;;4.80;51.20;;;;;;5073469;28;21075;-74
2023/01/24 00:43:28;;;;;;;21.67;14.80;;;4.80;50.10;;;;;;5073627;28;20872;-75
2023/01/24 00:45:54;;;;;;;20.50;13.23;;;4.80;51.80;;;;;;5073911;28;20730;-76
2023/01/24 00:48:19;;;;;;;20.83;13.48;;;4.80;50.00;;;;;;5074125;28;20819;-74
2023/01/24 00:50:45;;;;;;;23.13;15.03;;;4.80;51.20;;;;;;5077643;28;20375;-75
2023/01/24 00:53:10;;;;;;;22.20;14.20;;;4.80;52.20;;;;;;5079738;28;20383;-73
2023/01/24 00:55:47;;;;;;;22.53;14.40;;;4.70;51.70;;;;;;5083473;28;20881;-74
2023/01/24 00:58:13;;;;;;;22.20;14.23;;;4.70;53.20;;;;;;5074509;28;20454;-75
2023/01/24 01:00:39;;;;;;;21.58;14.00;;;4.70;53.50;;;;;;5073498;28;20466;-74
2023/01/24 01:03:12;;;;;;;17.75;12.73;;;4.60;54.10;;;;;;5073093;28;20790;-74
2023/01/24 01:05:37;;;;;;;21.50;14.63;;;4.60;54.00;;;;;;5071792;28;20800;-75
2023/01/24 01:08:03;;;;;;;19.90;12.90;;;4.60;55.90;;;;;;5073247;28;20392;-74
2023/01/24 01:10:28;;;;;;;19.17;13.55;;;4.60;54.00;;;;;;5073113;28;20449;-74
2023/01/24 01:12:54;;;;;;;21.07;14.83;;;4.60;54.00;;;;;;5073263;28;20467;-74
2023/01/24 01:15:20;;;;;;;21.17;14.27;;;4.60;54.00;;;;;;5072069;28;20925;-74
2023/01/24 01:17:45;;;;;;;25.37;15.70;;;4.60;53.80;;;;;;5073226;28;20376;-73
2023/01/24 01:20:11;;;;;;;19.47;13.13;;;4.70;55.20;;;;;;5073561;28;20379;-74
2023/01/24 01:22:37;;;;;;;19.90;13.40;;;4.60;52.60;;;;;;5074740;28;20858;-74
2023/01/24 01:25:02;;;;;;;21.77;14.40;;;4.50;54.60;;;;;;5075725;28;20475;-75
2023/01/24 01:27:28;;;;;;;19.47;13.87;;;4.50;58.30;;;;;;5074113;28;20395;-75
2023/01/24 01:29:53;;;;;;;21.10;14.77;;;4.50;56.60;;;;;;5072776;28;20858;-74
2023/01/24 01:32:19;;;;;;;17.70;11.73;;;4.40;58.60;;;;;;5072966;28;20768;-75
2023/01/24 01:34:44;;;;;;;19.23;13.73;;;4.60;51.90;;;;;;5072933;28;20406;-75
2023/01/24 01:37:10;;;;;;;19.13;13.40;;;4.60;54.10;;;;;;5073380;28;20395;-75
2023/01/24 01:39:35;;;;;;;20.63;14.30;;;4.60;51.70;;;;;;5073527;28;20803;-75
2023/01/24 01:42:01;;;;;;;21.10;13.77;;;4.60;52.50;;;;;;5073204;28;20749;-74
2023/01/24 01:44:38;;;;;;;18.67;12.60;;;4.50;53.80;;;;;;5072711;28;20772;-74
2023/01/24 01:47:30;;;;;;;22.48;14.70;;;4.60;52.40;;;;;;5072319;28;20481;-75
2023/01/24 01:50:05;;;;;;;18.77;13.00;;;4.60;56.00;;;;;;5072473;28;20952;-74
2023/01/24 01:52:41;;;;;;;19.07;13.67;;;4.60;51.70;;;;;;5071770;28;20439;-74
2023/01/24 01:55:14;;;;;;;19.77;13.77;;;4.50;53.80;;;;;;5071990;28;20496;-73
2023/01/24 01:57:41;;;;;;;22.02;14.70;;;4.50;53.90;;;;;;5071922;28;20380;-73
2023/01/24 02:00:12;;;;;;;20.23;13.80;;;4.40;54.40;;;;;;5071911;28;20419;-74
2023/01/24 02:02:40;;;;;;;20.20;13.32;;;4.40;55.00;;;;;;5071705;28;20409;-74
2023/01/24 02:05:10;;;;;;;18.67;12.77;;;4.40;53.60;;;;;;5071754;28;20383;-75
2023/01/24 02:07:43;;;;;;;19.23;13.30;;;4.40;53.30;;;;;;5071895;28;20388;-75
2023/01/24 02:10:10;;;;;;;19.53;12.90;;;4.50;54.00;;;;;;5071764;28;20494;-75
2023/01/24 02:12:44;;;;;;;18.85;12.80;;;4.50;54.60;;;;;;5071311;28;20741;-75
2023/01/24 02:18:03;;;;;;;18.35;12.43;;;4.70;51.50;;;;;;5071546;28;20382;-75
2023/01/24 02:20:39;;;;;;;17.70;12.05;;;4.70;54.30;;;;;;5071523;28;20380;-74
2023/01/24 02:23:27;;;;;;;16.23;11.07;;;4.70;52.60;;;;;;5071225;28;20372;-74
2023/01/24 02:26:12;;;;;;;15.88;11.45;;;4.50;51.00;;;;;;5071499;28;20379;-75
2023/01/24 02:28:44;;;;;;;16.10;11.75;;;4.40;53.20;;;;;;5069929;28;20471;-74
2023/01/24 02:31:09;;;;;;;17.00;11.73;;;4.60;53.00;;;;;;5071142;28;20437;-74
2023/01/24 02:33:35;;;;;;;17.90;11.90;;;4.70;52.10;;;;;;5071123;28;20403;-74
2023/01/24 02:36:26;;;;;;;16.40;11.20;;;4.70;52.60;;;;;;5071077;28;20520;-74
2023/01/24 02:38:58;;;;;;;16.33;10.45;;;4.60;52.50;;;;;;5069073;28;20396;-74
2023/01/24 02:41:42;;;;;;;14.43;10.10;;;4.70;49.00;;;;;;5070668;28;20384;-75
2023/01/24 02:44:14;;;;;;;15.80;10.75;;;4.80;49.10;;;;;;5071233;28;20764;-75
2023/01/24 02:46:43;;;;;;;16.40;11.10;;;4.70;48.80;;;;;;5071000;28;20437;-74
2023/01/24 02:49:10;;;;;;;14.43;10.65;;;4.60;50.40;;;;;;5070991;28;20429;-74
2023/01/24 02:54:20;;;;;;;15.45;11.23;;;4.60;50.70;;;;;;5071204;28;20426;-74
2023/01/24 02:59:29;;;;;;;13.18;9.93;;;4.50;54.10;;;;;;5071032;28;20386;-74
2023/01/24 03:01:55;;;;;;;14.60;10.48;;;4.40;51.40;;;;;;5070658;28;20380;-74
2023/01/24 03:04:20;;;;;;;13.88;9.80;;;4.50;51.00;;;;;;5070920;28;20384;-74
2023/01/24 03:06:48;;;;;;;13.63;10.23;;;4.60;49.90;;;;;;5070874;28;20403;-74
2023/01/24 03:09:33;;;;;;;12.63;9.10;;;4.60;51.40;;;;;;5070791;28;20783;-74
2023/01/24 03:36:40;;;;;;;15.63;9.02;;;4.60;48.00;;;;;;5070744;28;20429;-73
2023/01/24 03:41:54;;;;;;;12.30;8.30;;;4.70;48.80;;;;;;5070350;28;20383;-73
2023/01/24 03:44:19;;;;;;;14.37;9.73;;;4.60;48.70;;;;;;5070308;28;20387;-73
2023/01/24 03:46:45;;;;;;;11.90;9.17;;;4.50;52.10;;;;;;5070382;28;20375;-73
2023/01/24 03:49:10;;;;;;;14.93;9.50;;;4.50;52.00;;;;;;5070271;28;20419;-73
2023/01/24 03:54:20;;;;;;;13.40;8.90;;;4.40;51.00;;;;;;5074503;28;20549;-73
2023/01/24 03:56:47;;;;;;;11.70;8.33;;;4.30;51.00;;;;;;5074140;28;20438;-73
2023/01/24 03:59:13;;;;;;;11.13;7.90;;;4.30;51.50;;;;;;5074122;28;20821;-73
2023/01/24 04:01:38;;;;;;;13.07;8.50;;;4.30;50.80;;;;;;5074009;28;20466;-73
2023/01/24 04:04:04;;;;;;;13.68;9.70;;;4.40;50.70;;;;;;5106762;28;20395;-73
2023/01/24 04:06:29;;;;;;;11.55;8.50;;;4.60;50.50;;;;;;5106787;28;20376;-73
2023/01/24 04:08:55;;;;;;;12.88;8.73;;;4.50;49.50;;;;;;5073873;28;20383;-73
2023/01/24 04:11:20;;;;;;;12.00;8.70;;;4.50;51.60;;;;;;5074091;28;20428;-74
2023/01/24 04:13:46;;;;;;;12.55;8.75;;;4.50;48.60;;;;;;5073960;28;20466;-73
2023/01/24 04:16:12;;;;;;;9.43;7.75;;;4.50;48.60;;;;;;5106516;28;20423;-73
2023/01/24 04:18:38;;;;;;;12.25;8.90;;;4.40;48.10;;;;;;5073774;28;20379;-74
2023/01/24 04:21:04;;;;;;;13.10;9.00;;;4.40;48.60;;;;;;5073840;28;20849;-74
2023/01/24 04:23:30;;;;;;;11.98;9.00;;;4.30;49.90;;;;;;5074399;28;20768;-73
2023/01/24 04:25:57;;;;;;;13.25;8.73;;;4.20;51.80;;;;;;5073980;28;20394;-73
2023/01/24 04:28:23;;;;;;;12.55;9.25;;;4.20;51.90;;;;;;5074074;28;20379;-73
2023/01/24 04:30:55;;;;;;;17.60;9.27;;;4.10;52.30;;;;;;5073778;28;20463;-74
2023/01/24 04:33:21;;;;;;;13.88;9.60;;;4.30;50.70;;;;;;5073941;28;20419;-74
2023/01/24 04:35:46;;;;;;;14.70;10.00;;;4.30;51.10;;;;;;5106430;28;20844;-73
2023/01/24 04:38:12;;;;;;;12.18;9.02;;;4.10;51.60;;;;;;5073650;28;20745;-73
2023/01/24 04:40:38;;;;;;;12.17;9.30;;;4.30;50.10;;;;;;5073482;28;20543;-73
2023/01/24 04:43:03;;;;;;;12.17;8.90;;;4.50;50.20;;;;;;5071914;28;20899;-72
2023/01/24 04:45:29;;;;;;;11.40;8.68;;;4.40;46.80;;;;;;5073436;28;20391;-73
2023/01/24 04:47:54;;;;;;;14.93;9.77;;;4.30;47.10;;;;;;5105880;27;20380;-74
2023/01/24 04:50:20;;;;;;;14.25;9.60;;;4.30;49.20;;;;;;5073316;28;20857;-73
2023/01/24 04:52:46;;;;;;;12.98;9.45;;;4.20;49.20;;;;;;5071877;28;20392;-74
2023/01/24 04:55:11;;;;;;;12.07;8.73;;;4.20;48.30;;;;;;5073477;28;20498;-74
2023/01/24 04:57:37;;;;;;;16.43;9.80;;;4.20;49.30;;;;;;5073197;28;20411;-74
2023/01/24 05:00:04;;;;;;;12.67;9.20;;;4.10;51.20;;;;;;5072928;28;20845;-73
2023/01/24 05:02:29;;;;;;;14.25;8.80;;;4.20;50.50;;;;;;5072222;28;20801;-74
2023/01/24 05:04:55;;;;;;;15.73;9.55;;;4.10;50.80;;;;;;5072980;28;20487;-74
2023/01/24 05:07:21;;;;;;;13.43;10.07;;;4.00;51.20;;;;;;5073066;28;20397;-75
2023/01/24 05:09:46;;;;;;;12.83;8.77;;;4.20;50.30;;;;;;5072938;28;20827;-75
2023/01/24 05:12:12;;;;;;;12.53;9.60;;;4.30;47.70;;;;;;5105185;28;20395;-73
2023/01/24 05:14:37;;;;;;;14.10;10.10;;;4.30;48.90;;;;;;5072748;28;20437;-73
2023/01/24 05:17:03;;;;;;;11.07;8.50;;;4.20;49.10;;;;;;5073058;28;20383;-73
2023/01/24 05:19:29;;;;;;;13.68;9.48;;;4.10;50.20;;;;;;5105759;28;20753;-73
2023/01/24 05:21:54;;;;;;;12.75;9.30;;;3.90;51.80;;;;;;5072604;28;20372;-73
2023/01/24 05:24:20;;;;;;;12.10;9.80;;;3.90;51.90;;;;;;5072605;28;20380;-74
2023/01/24 05:26:45;;;;;;;12.77;9.20;;;4.00;53.10;;;;;;5071290;28;20445;-75
2023/01/24 05:29:11;;;;;;;12.60;9.30;;;3.90;52.00;;;;;;5072710;28;20476;-73
2023/01/24 05:31:36;;;;;;;12.50;8.93;;;4.00;53.00;;;;;;5072327;28;20423;-72
2023/01/24 05:34:04;;;;;;;13.57;9.67;;;4.20;48.60;;;;;;5072221;28;20408;-73
2023/01/24 05:36:31;;;;;;;13.23;9.75;;;4.30;48.40;;;;;;5072320;28;20387;-73
2023/01/24 05:38:56;;;;;;;14.20;9.75;;;4.20;49.00;;;;;;5072309;28;20888;-73
2023/01/24 05:41:22;;;;;;;14.20;10.20;;;4.30;49.80;;;;;;5072229;28;20387;-73
2023/01/24 05:43:49;;;;;;;14.63;9.70;;;4.30;49.90;;;;;;5072204;28;20811;-73
2023/01/24 05:46:18;;;;;;;18.75;10.07;;;4.20;49.90;;;;;;5072146;28;20475;-73
2023/01/24 05:48:44;;;;;;;14.75;9.95;;;4.20;51.20;;;;;;5070612;28;20876;-73
2023/01/24 05:51:12;;;;;;;13.20;9.50;;;4.20;49.30;;;;;;5072002;28;20781;-74
2023/01/24 05:53:40;;;;;;;13.25;10.20;;;4.20;49.60;;;;;;5072235;28;20798;-73
2023/01/24 05:56:17;;;;;;;13.80;10.10;;;4.20;49.70;;;;;;5072247;28;20447;-76
2023/01/24 05:58:44;;;;;;;14.20;10.38;;;4.20;50.10;;;;;;5072390;28;20384;-72
2023/01/24 06:01:13;;;;;;;15.10;10.27;;;4.30;49.40;;;;;;5073148;28;20379;-74
2023/01/24 06:03:40;;;;;;;17.15;10.68;;;4.30;48.10;;;;;;5084062;28;20384;-73
2023/01/24 06:06:07;;;;;;;14.88;10.93;;;4.40;48.10;;;;;;5074934;28;20444;-73
2023/01/24 06:08:32;;;;;;;15.82;10.32;;;4.40;48.30;;;;;;5071683;28;20388;-73
2023/01/24 06:11:03;;;;;;;14.10;9.90;;;4.30;48.50;;;;;;5070120;28;20395;-73
2023/01/24 06:13:29;;;;;;;15.85;10.05;;;4.40;47.50;;;;;;5071761;28;20846;-73
2023/01/24 06:16:19;;;;;;;16.73;10.70;;;4.30;49.30;;;;;;5070867;28;20438;-74
2023/01/24 06:18:45;;;;;;;15.57;10.57;;;4.30;48.80;;;;;;5073338;28;20482;-73
2023/01/24 06:21:33;;;;;;;16.23;10.77;;;4.10;51.00;;;;;;5080210;28;20909;-73
2023/01/24 06:23:59;;;;;;;14.93;10.60;;;4.30;50.90;;;;;;5092237;28;20390;-74
2023/01/24 06:26:25;;;;;;;15.13;10.85;;;4.50;47.80;;;;;;5090610;28;20382;-74
2023/01/24 06:28:51;;;;;;;13.13;10.27;;;4.40;48.30;;;;;;5088981;28;20769;-74
2023/01/24 06:31:48;;;;;;;14.75;10.18;;;4.40;48.20;;;;;;5091852;28;20400;-74
2023/01/24 06:34:24;;;;;;;18.25;11.70;;;4.40;46.50;;;;;;5091154;28;20894;-74
2023/01/24 06:37:07;;;;;;;16.98;10.70;;;4.40;48.50;;;;;;5092958;28;20396;-75
2023/01/24 06:39:34;;;;;;;18.67;10.85;;;4.40;48.00;;;;;;5074358;28;20385;-76
2023/01/24 06:42:00;;;;;;;16.95;11.23;;;4.60;44.20;;;;;;5091858;28;20386;-75
2023/01/24 06:44:26;;;;;;;18.05;12.35;;;4.60;45.40;;;;;;5089822;28;20457;-74
2023/01/24 06:46:51;;;;;;;21.98;13.20;;;4.50;46.50;;;;;;5091173;28;20508;-73
2023/01/24 06:49:17;;;;;;;14.95;9.98;;;4.50;46.90;;;;;;5090392;28;20382;-73
2023/01/24 06:51:42;;;;;;;20.55;12.75;;;4.60;43.10;;;;;;5091243;28;20422;-73
2023/01/24 06:54:08;;;;;;;18.90;13.55;;;4.50;44.90;;;;;;5092595;28;20382;-71
2023/01/24 06:56:33;;;;;;;23.60;13.20;;;4.50;46.40;;;;;;5091574;28;20882;-72
2023/01/24 06:58:59;;;;;;;18.60;12.47;;;4.30;48.10;;;;;;5083723;28;20487;-72
2023/01/24 07:01:25;;;;;;;22.93;13.70;;;4.30;48.10;;;;;;5089623;28;20806;-73
2023/01/24 07:03:50;;;;;;;18.87;12.13;;;4.30;48.40;;;;;;5089619;28;20470;-72
2023/01/24 07:06:16;;;;;;;19.17;13.00;;;4.30;47.40;;;;;;5091669;28;20716;-72
2023/01/24 07:08:42;;;;;;;21.00;13.48;;;4.30;47.80;;;;;;5092407;28;20385;-74
2023/01/24 07:11:07;;;;;;;21.33;14.05;;;4.40;47.80;;;;;;5091228;28;20385;-73
2023/01/24 07:13:33;;;;;;;24.17;15.18;;;4.30;50.50;;;;;;5091861;28;20447;-72
2023/01/24 07:16:02;;;;;;;21.13;13.48;;;4.40;50.00;;;;;;5091953;28;20909;-74
2023/01/24 07:18:28;;;;;;;22.33;14.57;;;4.40;49.20;;;;;;5091509;28;20443;-72
2023/01/24 07:20:53;;;;;;;19.55;12.35;;;4.30;49.20;;;;;;5092094;28;20386;-72
2023/01/24 07:23:24;;;;;;;23.10;13.70;;;4.30;47.60;;;;;;5091477;28;20469;-72
2023/01/24 07:25:53;;;;;;;22.10;13.43;;;4.30;49.30;;;;;;5091774;28;20385;-73
2023/01/24 07:28:19;;;;;;;18.77;12.82;;;4.30;49.80;;;;;;5092659;28;20381;-73
2023/01/24 07:30:47;;;;;;;27.15;12.77;;;4.20;49.60;;;;;;5089821;28;20401;-73
2023/01/24 07:33:13;;;;;;;19.63;12.45;;;4.10;50.00;;;;;;5090898;28;20831;-73
2023/01/24 07:35:40;;;;;;;19.83;12.70;;;4.10;49.90;;;;;;5090869;28;20404;-72
2023/01/24 07:38:08;;;;;;;29.45;14.80;;;4.20;49.90;;;;;;5090705;28;20498;-73
2023/01/24 07:40:35;;;;;;;20.02;13.23;;;4.30;51.90;;;;;;5092060;28;20384;-73
2023/01/24 07:43:02;;;;;;;22.58;15.15;;;4.20;51.90;;;;;;5093079;28;20374;-73
2023/01/24 07:45:28;;;;;;;20.38;14.13;;;4.30;51.60;;;;;;5093481;28;20378;-73
2023/01/24 07:47:58;;;;;;;20.75;13.30;;;4.30;50.20;;;;;;5093455;28;20374;-73
2023/01/24 07:50:24;;;;;;;18.50;13.15;;;4.30;49.10;;;;;;5091762;28;20751;-72
2023/01/24 07:52:51;;;;;;;20.85;14.05;;;4.60;46.40;;;;;;5090184;28;20390;-73
2023/01/24 07:55:18;;;;;;;20.00;14.43;;;4.50;47.40;;;;;;5090564;28;20402;-73
2023/01/24 07:57:43;;;;;;;19.42;12.40;;;4.50;47.80;;;;;;5090935;28;20712;-73
2023/01/24 08:00:10;;;;;;;18.75;11.98;;;4.60;44.10;;;;;;5091133;28;20501;-72
2023/01/24 08:02:35;;;;;;;24.15;15.30;;;4.80;43.30;;;;;;5090617;28;20507;-72
2023/01/24 08:05:01;;;;;;;20.88;13.95;;;4.80;44.90;;;;;;5090837;28;20409;-72
2023/01/24 08:07:26;;;;;;;20.30;13.48;;;4.80;43.50;;;;;;5090625;28;21008;-73
2023/01/24 08:09:52;;;;;;;18.90;13.00;;;4.80;42.60;;;;;;5090369;28;20716;-72
2023/01/24 08:12:17;;;;;;;20.40;13.87;;;4.80;44.00;;;;;;5090615;28;20477;-72
2023/01/24 08:14:43;;;;;;;19.87;14.17;;;4.70;43.80;;;;;;5090129;28;20447;-72
2023/01/24 08:17:09;;;;;;;20.10;14.20;;;4.60;43.90;;;;;;5090384;28;20910;-73
2023/01/24 08:19:35;;;;;;;26.00;14.48;;;4.60;46.00;;;;;;5090432;28;20465;-72
2023/01/24 08:22:02;;;;;;;20.77;14.70;;;4.50;46.00;;;;;;5090455;28;20451;-72
2023/01/24 08:24:28;;;;;;;21.50;14.50;;;4.60;45.90;;;;;;5092113;28;20374;-73
2023/01/24 08:26:53;;;;;;;25.10;15.52;;;4.50;47.80;;;;;;5090320;28;20457;-72
2023/01/24 08:29:19;;;;;;;28.97;16.20;;;4.70;46.50;;;;;;5091139;28;20419;-72
2023/01/24 08:31:44;;;;;;;91.03;54.13;;;4.70;46.40;;;;;;5091262;28;20803;-72
2023/01/24 08:34:10;;;;;;;23.53;13.80;;;5.00;55.80;;;;;;5097767;28;20390;-72
2023/01/24 08:36:36;;;;;;;24.03;14.33;;;5.20;45.70;;;;;;5106569;28;20393;-72
2023/01/24 08:39:04;;;;;;;21.58;14.05;;;5.20;41.90;;;;;;5104119;28;20924;-72
2023/01/24 08:41:29;;;;;;;22.13;13.57;;;5.00;42.00;;;;;;5094260;28;20761;-72
2023/01/24 08:43:55;;;;;;;23.58;14.57;;;4.80;44.60;;;;;;5094357;28;20469;-73
2023/01/24 08:46:20;;;;;;;21.40;14.43;;;4.80;47.30;;;;;;5092375;28;20883;-72
2023/01/24 08:48:46;;;;;;;24.63;15.07;;;4.70;47.70;;;;;;5093893;28;20465;-73
2023/01/24 08:51:11;;;;;;;23.50;14.00;;;4.80;45.10;;;;;;5093731;28;20438;-73
2023/01/24 08:53:37;;;;;;;19.77;13.50;;;4.70;47.00;;;;;;5093738;28;20389;-73
2023/01/24 08:56:03;;;;;;;20.90;15.27;;;4.80;45.90;;;;;;5094112;28;20408;-72
2023/01/24 08:58:29;;;;;;;21.23;14.75;;;5.10;43.90;;;;;;5093985;28;20378;-72
2023/01/24 09:00:54;;;;;;;21.93;13.33;;;5.20;44.30;;;;;;5093507;28;20389;-72
2023/01/24 09:03:20;;;;;;;25.40;14.40;;;5.10;42.50;;;;;;5093645;28;20382;-73
2023/01/24 09:05:46;;;;;;;29.37;13.67;;;5.10;42.90;;;;;;5093270;28;20393;-73
2023/01/24 09:08:11;;;;;;;28.00;16.23;;;5.30;40.60;;;;;;5094466;28;20385;-73
2023/01/24 09:10:37;;;;;;;22.30;14.65;;;5.30;41.60;;;;;;5094829;28;20467;-73
2023/01/24 09:13:04;;;;;;;24.98;14.77;;;5.10;45.40;;;;;;5093546;28;20848;-73
2023/01/24 09:15:30;;;;;;;19.50;13.98;;;5.20;42.30;;;;;;5094213;28;20879;-74
2023/01/24 09:17:55;;;;;;;19.35;13.45;;;5.10;43.40;;;;;;5092163;28;20394;-73
2023/01/24 09:20:21;;;;;;;22.00;14.18;;;5.10;40.90;;;;;;5092809;28;20715;-72
2023/01/24 09:22:47;;;;;;;23.02;14.82;;;5.00;43.10;;;;;;5085651;28;20378;-72
2023/01/24 09:25:13;;;;;;;23.93;14.70;;;5.00;43.30;;;;;;5096700;28;20392;-71
2023/01/24 09:27:41;;;;;;;22.83;14.40;;;4.80;44.40;;;;;;5086440;28;20390;-72
2023/01/24 09:30:08;;;;;;;20.08;13.98;;;4.80;44.60;;;;;;5099738;28;20401;-72
2023/01/24 09:32:35;;;;;;;20.60;13.13;;;4.90;43.30;;;;;;5083171;28;20427;-71
2023/01/24 09:35:01;;;;;;;38.37;14.60;;;5.30;39.30;;;;;;5093362;28;20439;-70
2023/01/24 09:37:27;;;;;;;28.02;13.82;;;5.40;39.20;;;;;;5078279;28;20408;-72
2023/01/24 09:39:55;;;;;;;23.30;13.47;;;5.40;38.90;;;;;;5090012;28;20447;-73
2023/01/24 09:42:39;;;;;;;23.40;14.35;;;5.40;38.30;;;;;;5097872;28;20377;-72
2023/01/24 09:45:10;;;;;;;20.90;13.27;;;5.40;39.20;;;;;;5077735;28;20453;-72
2023/01/24 09:47:51;;;;;;;21.25;13.00;;;5.40;39.00;;;;;;5078935;28;20837;-72
2023/01/24 09:50:25;;;;;;;22.13;13.17;;;5.40;39.20;;;;;;5081425;28;20414;-72
2023/01/24 09:52:57;;;;;;;22.00;13.63;;;5.40;37.60;;;;;;5083107;28;20407;-72
2023/01/24 09:55:29;;;;;;;19.67;13.10;;;5.30;38.50;;;;;;5080031;28;20451;-71
2023/01/24 09:58:06;;;;;;;22.25;13.45;;;5.20;38.20;;;;;;5083461;28;20399;-72
2023/01/24 10:00:36;;;;;;;24.30;14.00;;;5.20;39.10;;;;;;5099891;28;20487;-72
2023/01/24 10:03:02;;;;;;;18.80;13.57;;;5.20;39.50;;;;;;5114519;28;20374;-72
2023/01/24 10:05:38;;;;;;;21.40;13.40;;;5.20;39.50;;;;;;5100493;28;20414;-72
2023/01/24 10:08:33;;;;;;;26.90;13.60;;;5.30;40.70;;;;;;5099786;28;20394;-72
2023/01/24 10:11:31;;;;;;;26.40;13.73;;;5.30;39.60;;;;;;5100611;28;20382;-73
2023/01/24 10:14:20;;;;;;;22.00;14.80;;;5.40;38.00;;;;;;5100444;28;20390;-74
2023/01/24 10:17:10;;;;;;;31.00;16.10;;;5.40;37.20;;;;;;5099560;28;20418;-72
2023/01/24 10:20:07;;;;;;;31.88;17.67;;;5.30;39.10;;;;;;5099042;28;20390;-73
2023/01/24 10:22:55;;;;;;;21.48;13.95;;;5.30;41.60;;;;;;5079997;28;20383;-71
2023/01/24 10:25:45;;;;;;;27.60;16.70;;;5.30;39.20;;;;;;5077283;28;20463;-75
2023/01/24 10:28:27;;;;;;;26.48;17.30;;;5.40;40.30;;;;;;5070919;28;20423;-73
2023/01/24 10:30:57;;;;;;;23.48;14.80;;;5.40;39.70;;;;;;5071651;28;20461;-73
2023/01/24 10:33:29;;;;;;;25.60;15.48;;;5.70;38.60;;;;;;5071841;28;20363;-73
2023/01/24 10:36:11;;;;;;;24.33;14.10;;;5.70;37.90;;;;;;5071946;28;20419;-73
2023/01/24 10:38:37;;;;;;;26.50;16.67;;;5.60;38.90;;;;;;5072044;28;20391;-72
2023/01/24 10:41:20;;;;;;;26.20;17.55;;;5.60;41.00;;;;;;5071511;28;20475;-72
2023/01/24 10:44:04;;;;;;;26.90;15.57;;;5.80;38.10;;;;;;5071979;28;20414;-74
2023/01/24 10:46:49;;;;;;;24.53;16.10;;;5.70;38.40;;;;;;5071994;28;20418;-73
2023/01/24 10:49:22;;;;;;;19.23;14.10;;;5.60;40.40;;;;;;5071486;28;20430;-72
2023/01/24 10:52:11;;;;;;;26.55;16.65;;;5.50;40.20;;;;;;5070995;28;20383;-72
2023/01/24 10:54:46;;;;;;;27.00;15.20;;;5.60;40.20;;;;;;5071234;28;20399;-71
2023/01/24 10:57:36;;;;;;;30.60;16.13;;;5.50;39.90;;;;;;5071327;28;20448;-73
2023/01/24 11:00:27;;;;;;;28.73;14.70;;;5.40;40.10;;;;;;5070502;28;20465;-71
2023/01/24 11:02:57;;;;;;;30.80;16.13;;;5.50;40.90;;;;;;5070927;28;20454;-73
2023/01/24 11:05:24;;;;;;;23.45;15.32;;;5.70;39.80;;;;;;5071927;28;20460;-72
2023/01/24 11:07:59;;;;;;;22.38;15.10;;;5.80;39.60;;;;;;5080747;28;20391;-72
2023/01/24 11:10:34;;;;;;;22.15;12.82;;;5.90;39.00;;;;;;5081526;28;20403;-73
2023/01/24 11:13:02;;;;;;;30.15;17.77;;;6.20;35.40;;;;;;5070971;28;20407;-72
2023/01/24 11:15:31;;;;;;;22.15;15.20;;;6.30;36.20;;;;;;5070767;28;20402;-74
2023/01/24 11:18:07;;;;;;;20.75;13.20;;;6.30;35.70;;;;;;5071428;28;20876;-73
2023/01/24 11:20:35;;;;;;;23.23;14.77;;;6.20;33.40;;;;;;5070952;28;20880;-73
2023/01/24 11:23:10;;;;;;;26.65;16.13;;;6.10;36.30;;;;;;5069494;28;20384;-73
2023/01/24 11:25:35;;;;;;;29.30;18.13;;;6.20;36.70;;;;;;5071140;28;20419;-72
2023/01/24 11:28:01;;;;;;;29.00;16.57;;;6.20;37.00;;;;;;5070626;28;20407;-73
2023/01/24 11:30:33;;;;;;;29.30;14.90;;;6.00;36.70;;;;;;5071196;28;20388;-72
2023/01/24 11:33:34;;;;;;;25.85;14.43;;;5.90;37.10;;;;;;5071453;28;20394;-73
2023/01/24 11:36:21;;;;;;;29.45;17.25;;;5.90;36.70;;;;;;5071798;28;20450;-73
2023/01/24 11:38:49;;;;;;;25.15;13.98;;;5.90;38.00;;;;;;5073150;28;20411;-73
2023/01/24 11:41:34;;;;;;;24.75;16.63;;;6.10;36.70;;;;;;5071861;28;20387;-73
2023/01/24 11:44:43;;;;;;;26.42;15.25;;;6.20;36.30;;;;;;5071836;28;20445;-72
2023/01/24 11:47:20;;;;;;;23.50;14.40;;;6.10;36.50;;;;;;5051347;28;20817;-72
2023/01/24 11:49:52;;;;;;;24.77;14.63;;;6.30;35.70;;;;;;5071475;28;20533;-73
2023/01/24 11:52:50;;;;;;;20.07;13.20;;;6.40;34.70;;;;;;5071185;28;20935;-75
2023/01/24 11:56:02;;;;;;;22.02;13.82;;;6.50;33.40;;;;;;5072668;28;20414;-72
2023/01/24 11:58:37;;;;;;;31.45;14.57;;;6.50;31.90;;;;;;5066757;28;20467;-72
2023/01/24 12:01:19;;;;;;;135.60;26.00;;;6.40;33.00;;;;;;5070333;28;20417;-73
2023/01/24 12:03:50;;;;;;;38.80;14.43;;;6.40;34.80;;;;;;5070389;28;20421;-72
2023/01/24 12:06:32;;;;;;;28.48;15.35;;;6.40;32.90;;;;;;5070628;28;20402;-73
2023/01/24 12:09:17;;;;;;;23.70;13.70;;;6.30;33.90;;;;;;5070267;28;20466;-71
2023/01/24 12:12:04;;;;;;;20.33;12.75;;;6.30;34.00;;;;;;5071716;28;20383;-74
2023/01/24 12:14:41;;;;;;;20.30;12.73;;;6.20;33.20;;;;;;5074378;28;20392;-72
2023/01/24 12:17:33;;;;;;;23.13;13.52;;;6.20;33.80;;;;;;5075705;28;20448;-73
2023/01/24 12:20:21;;;;;;;24.38;15.68;;;6.20;33.10;;;;;;5074476;28;20998;-72
2023/01/24 12:22:49;;;;;;;25.48;14.45;;;6.20;34.90;;;;;;5074036;28;20423;-72
2023/01/24 12:25:36;;;;;;;24.70;15.55;;;6.20;33.80;;;;;;5074304;28;20387;-72
2023/01/24 12:28:06;;;;;;;20.90;14.18;;;6.20;35.80;;;;;;5074448;28;20371;-73
2023/01/24 12:30:41;;;;;;;22.73;15.43;;;6.00;35.70;;;;;;5074566;28;20787;-73
2023/01/24 12:33:23;;;;;;;23.77;15.13;;;6.10;36.00;;;;;;5074610;28;20402;-74
2023/01/24 12:35:53;;;;;;;23.35;14.40;;;6.20;35.00;;;;;;5074392;28;20411;-73
2023/01/24 12:38:35;;;;;;;24.92;16.40;;;6.20;35.00;;;;;;5074357;28;20391;-73
2023/01/24 12:41:34;;;;;;;19.77;14.60;;;6.20;35.50;;;;;;5074092;28;20424;-73
2023/01/24 12:44:30;;;;;;;16.60;12.18;;;6.30;34.00;;;;;;5073740;28;20372;-72
2023/01/24 12:47:09;;;;;;;17.70;12.00;;;6.50;31.00;;;;;;5073650;28;20375;-72
2023/01/24 12:50:01;;;;;;;19.50;12.77;;;6.30;31.70;;;;;;5073677;28;20880;-72
2023/01/24 12:52:51;;;;;;;25.15;13.80;;;6.20;33.00;;;;;;5073698;28;20877;-72
2023/01/24 12:55:50;;;;;;;25.08;13.20;;;6.10;32.50;;;;;;5072838;28;20403;-73
2023/01/24 12:58:21;;;;;;;23.98;14.23;;;6.10;32.80;;;;;;5070698;28;20522;-72
2023/01/24 13:01:18;;;;;;;28.30;15.75;;;6.10;33.40;;;;;;5074614;28;20387;-73
2023/01/24 13:04:26;;;;;;;22.35;14.70;;;6.20;34.20;;;;;;5074053;28;20413;-75
2023/01/24 13:07:10;;;;;;;30.23;17.48;;;6.20;34.30;;;;;;5066770;28;20491;-75
2023/01/24 13:10:00;;;;;;;24.10;15.30;;;6.20;35.40;;;;;;5074847;28;20387;-75
2023/01/24 13:12:27;;;;;;;21.92;14.23;;;6.10;34.50;;;;;;5073860;28;20418;-73
2023/01/24 13:14:58;;;;;;;37.65;21.40;;;6.20;33.10;;;;;;5073490;28;20475;-72
2023/01/24 13:17:44;;;;;;;29.85;14.70;;;6.20;35.30;;;;;;5073555;28;20455;-73
2023/01/24 13:20:28;;;;;;;24.98;16.05;;;6.30;33.40;;;;;;5073492;28;20386;-72
2023/01/24 13:23:15;;;;;;;27.42;16.20;;;6.30;34.60;;;;;;5073818;28;20394;-73
2023/01/24 13:26:07;;;;;;;27.17;17.23;;;6.20;34.30;;;;;;5074111;28;20452;-73
2023/01/24 13:28:56;;;;;;;32.08;18.02;;;6.10;35.50;;;;;;5074000;28;20382;-74
2023/01/24 13:31:49;;;;;;;29.23;17.17;;;6.20;34.70;;;;;;5073248;28;20436;-72
2023/01/24 13:34:23;;;;;;;24.33;17.70;;;6.20;35.50;;;;;;5072621;28;20471;-72
2023/01/24 13:36:51;;;;;;;20.20;14.60;;;6.20;36.00;;;;;;5074688;28;20384;-72
2023/01/24 13:39:29;;;;;;;20.70;15.32;;;6.10;35.40;;;;;;5082057;28;20383;-71